Time;durP1;ratioP1;P1;durP2;ratioP2;P2;SDS_P1;SDS_P2;PMS_P1;PMS_P2;Temp;Humidity;BMP_temperature;BMP_pressure;BME280_temperature;BME280_humidity;BME280_pressure;Samples;Min_cycle;Max_cycle;Signal;HPM_P1;HPM_P2
2023/12/07 00:01:34;;;;;;;;;;;4.40;99.90;;;;;;5076435;28;20370;-76
2023/12/07 00:04:00;;;;;;;;;;;4.40;99.90;;;;;;5075872;28;20003;-75
2023/12/07 00:06:26;;;;;;;;;;;4.40;99.90;;;;;;5074909;28;19951;-76
2023/12/07 00:08:51;;;;;;;;;;;4.50;99.90;;;;;;5075840;28;19908;-76
2023/12/07 00:11:17;;;;;;;;;;;4.50;99.90;;;;;;5075999;28;19926;-76
2023/12/07 00:13:42;;;;;;;;;;;4.50;99.90;;;;;;5075932;28;19982;-76
2023/12/07 00:16:08;;;;;;;;;;;4.50;99.90;;;;;;5080471;28;20402;-76
2023/12/07 00:18:34;;;;;;;;;;;4.50;99.90;;;;;;5082156;28;20299;-76
2023/12/07 00:20:59;;;;;;;;;;;4.50;99.90;;;;;;5074157;28;19919;-77
2023/12/07 00:23:25;;;;;;;;;;;4.50;99.90;;;;;;5077076;28;19912;-78
2023/12/07 00:25:50;;;;;;;;;;;4.50;99.90;;;;;;5086540;28;19909;-77
2023/12/07 00:28:16;;;;;;;;;;;4.60;99.90;;;;;;5075492;28;20385;-76
2023/12/07 00:30:42;;;;;;;;;;;4.60;99.90;;;;;;5075548;28;20345;-76
2023/12/07 00:33:08;;;;;;;;;;;4.60;99.90;;;;;;5075516;28;19955;-76
2023/12/07 00:35:34;;;;;;;;;;;4.60;99.90;;;;;;5074034;28;19915;-77
2023/12/07 00:38:00;;;;;;;;;;;4.60;99.90;;;;;;5075205;28;19912;-77
2023/12/07 00:40:25;;;;;;;;;;;4.60;99.90;;;;;;5075670;28;19916;-76
2023/12/07 00:42:51;;;;;;;;;;;4.60;99.90;;;;;;5075091;28;19908;-76
2023/12/07 00:45:16;;;;;;;;;;;4.60;99.90;;;;;;5075787;28;20344;-76
2023/12/07 00:47:42;;;;;;;;;;;4.60;99.90;;;;;;5075143;28;19916;-76
2023/12/07 00:50:08;;;;;;;;;;;4.60;99.90;;;;;;5074924;28;19915;-76
2023/12/07 00:52:33;;;;;;;;;;;4.60;99.90;;;;;;5074949;28;20003;-75
2023/12/07 00:54:59;;;;;;;;;;;4.60;99.90;;;;;;5075228;28;20124;-77
2023/12/07 00:57:24;;;;;;;;;;;4.60;99.90;;;;;;5075019;28;20325;-76
2023/12/07 00:59:50;;;;;;;;;;;4.60;99.90;;;;;;5074491;28;19974;-77
2023/12/07 01:02:15;;;;;;;;;;;4.60;99.90;;;;;;5073251;28;19998;-78
2023/12/07 01:04:41;;;;;;;;;;;4.60;99.90;;;;;;5070812;28;19909;-77
2023/12/07 01:07:06;;;;;;;;;;;4.70;99.90;;;;;;5074974;28;19909;-76
2023/12/07 01:09:33;;;;;;;;;;;4.70;99.90;;;;;;5072912;28;19947;-75
2023/12/07 01:11:58;;;;;;;;;;;4.70;99.90;;;;;;5074331;28;19974;-76
2023/12/07 01:14:24;;;;;;;;;;;4.70;99.90;;;;;;5073405;28;19920;-77
2023/12/07 01:16:49;;;;;;;;;;;4.70;99.90;;;;;;5086029;28;20020;-77
2023/12/07 01:19:15;;;;;;;;;;;4.80;99.90;;;;;;5073884;28;20333;-75
2023/12/07 01:21:43;;;;;;;;;;;4.80;99.90;;;;;;5074098;28;19935;-75
2023/12/07 01:24:09;;;;;;;;;;;4.70;99.90;;;;;;5077950;28;20003;-76
2023/12/07 01:26:34;;;;;;;;;;;4.70;99.90;;;;;;5082259;28;19954;-77
2023/12/07 01:29:00;;;;;;;;;;;4.80;99.90;;;;;;5074163;28;19909;-77
2023/12/07 01:31:26;;;;;;;;;;;4.70;99.90;;;;;;5074577;28;19908;-76
2023/12/07 01:33:51;;;;;;;;;;;4.70;99.90;;;;;;5074147;28;20440;-78
2023/12/07 01:36:17;;;;;;;;;;;4.70;99.90;;;;;;5072920;28;19923;-76
2023/12/07 01:38:43;;;;;;;;;;;4.80;99.90;;;;;;5073977;28;19995;-76
2023/12/07 01:41:09;;;;;;;;;;;4.80;99.90;;;;;;5074332;28;20423;-77
2023/12/07 01:43:34;;;;;;;;;;;4.80;99.90;;;;;;5074417;28;19940;-76
2023/12/07 01:46:00;;;;;;;;;;;4.80;99.90;;;;;;5072834;28;19948;-76
2023/12/07 01:48:26;;;;;;;;;;;4.90;99.90;;;;;;5074202;28;19908;-76
2023/12/07 01:50:52;;;;;;;;;;;4.90;99.90;;;;;;5073852;28;20406;-76
2023/12/07 01:53:18;;;;;;;;;;;4.80;99.90;;;;;;5073667;28;19920;-76
2023/12/07 01:55:43;;;;;;;;;;;4.90;99.90;;;;;;5074119;28;20321;-76
2023/12/07 01:58:09;;;;;;;;;;;4.90;99.90;;;;;;5073985;28;19912;-76
2023/12/07 02:00:35;;;;;;;;;;;4.90;99.90;;;;;;5074081;28;19919;-76
2023/12/07 02:03:04;;;;;;;;;;;4.90;99.90;;;;;;5073710;28;19909;-76
2023/12/07 02:05:29;;;;;;;;;;;4.90;99.90;;;;;;5073616;28;19908;-76
2023/12/07 02:07:55;;;;;;;;;;;4.90;99.90;;;;;;5072478;28;20287;-77
2023/12/07 02:10:20;;;;;;;;;;;4.80;99.90;;;;;;5071618;28;19916;-76
2023/12/07 02:12:46;;;;;;;;;;;4.80;99.90;;;;;;5073157;28;19935;-76
2023/12/07 02:15:12;;;;;;;;;;;4.80;99.90;;;;;;5074780;28;20383;-76
2023/12/07 02:17:40;;;;;;;;;;;4.80;99.90;;;;;;5083533;28;19909;-76
2023/12/07 02:20:14;;;;;;;;;;;4.80;99.90;;;;;;5073730;28;19920;-77
2023/12/07 02:22:42;;;;;;;;;;;4.80;99.90;;;;;;5073588;28;19912;-76
2023/12/07 02:25:10;;;;;;;;;;;4.80;99.90;;;;;;5079384;28;19912;-75
2023/12/07 02:27:36;;;;;;;;;;;4.80;99.90;;;;;;5091997;28;19944;-76
2023/12/07 02:30:02;;;;;;;;;;;4.80;99.90;;;;;;5094142;28;19965;-75
2023/12/07 02:32:28;;;;;;;;;;;4.90;99.90;;;;;;5093812;28;19908;-76
2023/12/07 02:34:54;;;;;;;;;;;4.90;99.90;;;;;;5093542;28;20341;-77
2023/12/07 02:37:21;;;;;;;;;;;4.90;99.90;;;;;;5093696;28;19967;-76
2023/12/07 02:39:47;;;;;;;;;;;4.80;99.90;;;;;;5092785;28;20070;-75
2023/12/07 02:42:13;;;;;;;;;;;4.80;99.90;;;;;;5090775;28;19955;-75
2023/12/07 02:44:39;;;;;;;;;;;4.80;99.90;;;;;;5073726;28;19916;-76
2023/12/07 02:47:05;;;;;;;;;;;4.80;99.90;;;;;;5073461;28;20275;-77
2023/12/07 02:49:30;;;;;;;;;;;4.80;99.90;;;;;;5073525;28;20007;-76
2023/12/07 02:51:56;;;;;;;;;;;4.80;99.90;;;;;;5073442;28;20003;-76
2023/12/07 02:54:22;;;;;;;;;;;4.80;99.90;;;;;;5071021;28;19917;-75
2023/12/07 02:56:48;;;;;;;;;;;4.80;99.90;;;;;;5073411;28;20019;-76
2023/12/07 02:59:13;;;;;;;;;;;4.80;99.90;;;;;;5073224;28;19954;-77
2023/12/07 03:01:39;;;;;;;;;;;4.80;99.90;;;;;;5073438;28;19957;-77
2023/12/07 03:04:04;;;;;;;;;;;4.80;99.90;;;;;;5072382;28;19934;-76
2023/12/07 03:06:30;;;;;;;;;;;4.80;99.90;;;;;;5072954;28;20440;-76
2023/12/07 03:08:55;;;;;;;;;;;4.80;99.90;;;;;;5073438;28;19913;-76
2023/12/07 03:11:21;;;;;;;;;;;4.80;99.90;;;;;;5073152;28;19927;-76
2023/12/07 03:13:47;;;;;;;;;;;4.80;99.90;;;;;;5072842;28;19939;-77
2023/12/07 03:16:12;;;;;;;;;;;4.80;99.90;;;;;;5079027;28;20375;-76
2023/12/07 03:18:38;;;;;;;;;;;4.80;99.90;;;;;;5079237;28;19909;-75
2023/12/07 03:21:03;;;;;;;;;;;4.80;99.90;;;;;;5073310;28;20351;-76
2023/12/07 03:23:29;;;;;;;;;;;4.80;99.90;;;;;;5076586;28;20002;-77
2023/12/07 03:25:54;;;;;;;;;;;4.80;99.90;;;;;;5087610;28;20023;-77
2023/12/07 03:28:20;;;;;;;;;;;4.70;99.90;;;;;;5075371;28;19917;-76
2023/12/07 03:30:45;;;;;;;;;;;4.80;99.90;;;;;;5076741;28;19948;-76
2023/12/07 03:33:11;;;;;;;;;;;4.70;99.90;;;;;;5076968;28;19913;-76
2023/12/07 03:35:36;;;;;;;;;;;4.70;99.90;;;;;;5076727;28;20370;-76
2023/12/07 03:38:02;;;;;;;;;;;4.70;99.90;;;;;;5075164;28;19908;-77
2023/12/07 03:40:27;;;;;;;;;;;4.70;99.90;;;;;;5076584;28;19908;-77
2023/12/07 03:42:53;;;;;;;;;;;4.60;99.90;;;;;;5076334;28;19909;-76
2023/12/07 03:45:18;;;;;;;;;;;4.60;99.90;;;;;;5076632;28;19908;-76
2023/12/07 03:47:44;;;;;;;;;;;4.70;99.90;;;;;;5076819;28;19912;-76
2023/12/07 03:50:09;;;;;;;;;;;4.70;99.90;;;;;;5076105;28;19918;-76
2023/12/07 03:52:35;;;;;;;;;;;4.70;99.90;;;;;;5075095;28;19908;-77
2023/12/07 03:55:01;;;;;;;;;;;4.70;99.90;;;;;;5076374;28;19908;-76
2023/12/07 03:57:26;;;;;;;;;;;4.70;99.90;;;;;;5075870;28;19944;-75
2023/12/07 03:59:53;;;;;;;;;;;4.70;99.90;;;;;;5075456;28;20349;-75
2023/12/07 04:02:19;;;;;;;;;;;4.60;99.90;;;;;;5075832;28;20275;-76
2023/12/07 04:04:44;;;;;;;;;;;4.60;99.90;;;;;;5075998;28;19908;-77
2023/12/07 04:07:10;;;;;;;;;;;4.60;99.90;;;;;;5075997;28;20004;-76
2023/12/07 04:09:35;;;;;;;;;;;4.60;99.90;;;;;;5075777;28;19909;-76
2023/12/07 04:12:01;;;;;;;;;;;4.60;99.90;;;;;;5075981;28;19973;-76
2023/12/07 04:14:27;;;;;;;;;;;4.60;99.90;;;;;;5075596;28;19916;-76
2023/12/07 04:16:53;;;;;;;;;;;4.60;99.90;;;;;;5087206;28;19961;-77
2023/12/07 04:19:18;;;;;;;;;;;4.60;99.90;;;;;;5076386;28;20301;-76
2023/12/07 04:21:44;;;;;;;;;;;4.60;99.90;;;;;;5075986;28;19908;-76
2023/12/07 04:24:09;;;;;;;;;;;4.60;99.90;;;;;;5079692;28;20313;-76
2023/12/07 04:26:35;;;;;;;;;;;4.60;99.90;;;;;;5084546;28;19952;-76
2023/12/07 04:29:00;;;;;;;;;;;4.60;99.90;;;;;;5074009;28;19913;-77
2023/12/07 04:31:26;;;;;;;;;;;4.60;99.90;;;;;;5075351;28;20290;-77
2023/12/07 04:33:51;;;;;;;;;;;4.70;99.90;;;;;;5074862;28;19916;-76
2023/12/07 04:36:17;;;;;;;;;;;4.70;99.90;;;;;;5075709;28;19908;-75
2023/12/07 04:38:42;;;;;;;;;;;4.70;99.90;;;;;;5075341;28;20007;-75
2023/12/07 04:41:08;;;;;;;;;;;4.80;99.90;;;;;;5074384;28;19912;-77
2023/12/07 04:43:34;;;;;;;;;;;4.80;99.90;;;;;;5075268;28;20405;-77
2023/12/07 04:45:59;;;;;;;;;;;4.80;99.90;;;;;;5075638;28;19908;-77
2023/12/07 04:48:25;;;;;;;;;;;4.90;99.90;;;;;;5075699;28;19909;-76
2023/12/07 04:50:51;;;;;;;;;;;4.90;99.90;;;;;;5074856;28;19908;-76
2023/12/07 04:53:16;;;;;;;;;;;4.90;99.90;;;;;;5074837;28;20011;-76
2023/12/07 04:55:47;;;;;;;;;;;4.90;99.90;;;;;;5075131;28;20125;-78
2023/12/07 04:58:13;;;;;;;;;;;4.90;99.90;;;;;;5075236;28;19909;-78
2023/12/07 05:00:38;;;;;;;;;;;4.90;99.90;;;;;;5074899;28;20295;-76
2023/12/07 05:03:04;;;;;;;;;;;4.90;99.90;;;;;;5074517;28;20443;-76
2023/12/07 05:05:29;;;;;;;;;;;4.90;99.90;;;;;;5074803;28;19912;-76
2023/12/07 05:07:55;;;;;;;;;;;4.90;99.90;;;;;;5074726;28;19912;-77
2023/12/07 05:10:20;;;;;;;;;;;4.80;99.90;;;;;;5074488;28;19958;-76
2023/12/07 05:12:46;;;;;;;;;;;4.80;99.90;;;;;;5075040;28;20291;-76
2023/12/07 05:15:11;;;;;;;;;;;4.80;99.90;;;;;;5076621;28;19916;-76
2023/12/07 05:17:37;;;;;;;;;;;4.80;99.90;;;;;;5085057;28;19931;-75
2023/12/07 05:20:04;;;;;;;;;;;4.80;99.90;;;;;;5074719;28;20287;-76
2023/12/07 05:22:30;;;;;;;;;;;4.70;99.90;;;;;;5074365;28;19917;-77
2023/12/07 05:24:55;;;;;;;;;;;4.80;99.90;;;;;;5081132;28;19919;-77
2023/12/07 05:27:21;;;;;;;;;;;4.70;99.90;;;;;;5078696;28;19909;-75
2023/12/07 05:29:47;;;;;;;;;;;4.80;99.90;;;;;;5073622;28;19916;-76
2023/12/07 05:32:12;;;;;;;;;;;4.70;99.90;;;;;;5074252;28;19920;-76
2023/12/07 05:34:38;;;;;;;;;;;4.70;99.90;;;;;;5073086;28;19913;-77
2023/12/07 05:37:04;;;;;;;;;;;4.70;99.90;;;;;;5078083;28;19970;-77
2023/12/07 05:39:30;;;;;;;;;;;4.70;99.90;;;;;;5081429;28;20375;-77
2023/12/07 05:41:55;;;;;;;;;;;4.70;99.90;;;;;;5073228;28;20309;-75
2023/12/07 05:44:22;;;;;;;;;;;4.80;99.90;;;;;;5073849;28;19908;-77
2023/12/07 05:46:48;;;;;;;;;;;4.70;99.90;;;;;;5074043;28;19912;-78
2023/12/07 05:49:13;;;;;;;;;;;4.80;99.90;;;;;;5078008;28;19919;-77
2023/12/07 05:51:39;;;;;;;;;;;4.80;99.90;;;;;;5083024;28;19909;-75
2023/12/07 05:54:05;;;;;;;;;;;4.80;99.90;;;;;;5074047;28;19959;-73
2023/12/07 05:56:31;;;;;;;;;;;4.80;99.90;;;;;;5071559;28;19947;-76
2023/12/07 05:58:57;;;;;;;;;;;4.80;99.90;;;;;;5073704;28;19908;-76
2023/12/07 06:01:22;;;;;;;;;;;4.80;99.90;;;;;;5073594;28;19916;-77
2023/12/07 06:03:48;;;;;;;;;;;4.80;99.90;;;;;;5073477;28;19908;-76
2023/12/07 06:06:13;;;;;;;;;;;4.80;99.90;;;;;;5073631;28;19955;-75
2023/12/07 06:08:39;;;;;;;;;;;4.80;99.90;;;;;;5073443;28;19915;-75
2023/12/07 06:11:05;;;;;;;;;;;4.80;99.90;;;;;;5073057;28;20416;-74
2023/12/07 06:13:31;;;;;;;;;;;4.80;99.90;;;;;;5073611;28;19920;-74
2023/12/07 06:15:58;;;;;;;;;;;4.80;99.90;;;;;;5076590;28;20209;-77
2023/12/07 06:18:23;;;;;;;;;;;4.80;99.90;;;;;;5082035;28;19913;-74
2023/12/07 06:20:49;;;;;;;;;;;4.80;99.90;;;;;;5073256;28;19908;-74
2023/12/07 06:23:14;;;;;;;;;;;4.70;99.90;;;;;;5076426;28;19916;-74
2023/12/07 06:25:40;;;;;;;;;;;4.80;99.90;;;;;;5084749;28;19923;-77
2023/12/07 06:28:06;;;;;;;;;;;4.80;99.90;;;;;;5074748;28;20434;-74
2023/12/07 06:30:31;;;;;;;;;;;4.80;99.90;;;;;;5072992;28;19923;-77
2023/12/07 06:32:57;;;;;;;;;;;4.90;99.90;;;;;;5072282;28;19920;-76
2023/12/07 06:35:22;;;;;;;;;;;4.80;99.90;;;;;;5072274;28;19995;-77
2023/12/07 06:37:48;;;;;;;;;;;4.80;99.90;;;;;;5072796;28;20371;-77
2023/12/07 06:40:13;;;;;;;;;;;4.80;99.90;;;;;;5077957;28;19912;-74
2023/12/07 06:42:39;;;;;;;;;;;4.80;99.90;;;;;;5077773;28;20014;-74
2023/12/07 06:45:05;;;;;;;;;;;4.80;99.90;;;;;;5082580;28;20295;-77
2023/12/07 06:47:31;;;;;;;;;;;4.80;99.90;;;;;;5082141;28;19965;-75
2023/12/07 06:49:56;;;;;;;;;;;4.80;99.90;;;;;;5059876;28;19965;-74
2023/12/07 06:52:22;;;;;;;;;;;4.80;99.90;;;;;;5065152;28;19912;-74
2023/12/07 06:54:47;;;;;;;;;;;4.80;99.90;;;;;;5071544;28;19916;-74
2023/12/07 06:57:13;;;;;;;;;;;4.80;99.90;;;;;;5086150;28;19977;-74
2023/12/07 06:59:40;;;;;;;;;;;4.80;99.90;;;;;;5075658;28;19916;-76
2023/12/07 07:02:06;;;;;;;;;;;4.80;99.90;;;;;;5076270;28;19956;-77
2023/12/07 07:04:32;;;;;;;;;;;4.80;99.90;;;;;;5075293;28;20382;-74
2023/12/07 07:06:57;;;;;;;;;;;4.80;99.90;;;;;;5072736;28;19926;-74
2023/12/07 07:09:23;;;;;;;;;;;4.80;99.90;;;;;;5074715;28;20318;-76
2023/12/07 07:11:48;;;;;;;;;;;4.90;99.90;;;;;;5075920;28;19920;-76
2023/12/07 07:14:14;;;;;;;;;;;4.90;99.90;;;;;;5074089;28;19929;-77
2023/12/07 07:16:39;;;;;;;;;;;4.80;99.90;;;;;;5075055;28;19966;-76
2023/12/07 07:19:05;;;;;;;;;;;4.90;99.90;;;;;;5075637;28;20007;-75
2023/12/07 07:21:31;;;;;;;;;;;4.90;99.90;;;;;;5074434;28;19999;-76
2023/12/07 07:23:57;;;;;;;;;;;4.90;99.90;;;;;;5077939;28;19937;-77
2023/12/07 07:26:24;;;;;;;;;;;4.90;99.90;;;;;;5080330;28;19912;-77
2023/12/07 07:28:53;;;;;;;;;;;5.00;99.90;;;;;;5106740;27;19982;-77
2023/12/07 07:31:19;;;;;;;;;;;5.00;99.90;;;;;;5074874;28;19940;-76
2023/12/07 07:33:46;;;;;;;;;;;5.00;99.90;;;;;;5074455;28;19966;-75
2023/12/07 07:36:12;;;;;;;;;;;5.10;99.90;;;;;;5073065;28;19969;-75
2023/12/07 07:38:38;;;;;;;;;;;5.10;99.90;;;;;;5088762;28;19915;-77
2023/12/07 07:41:04;;;;;;;;;;;5.20;99.90;;;;;;5074829;28;19951;-76
2023/12/07 07:43:29;;;;;;;;;;;5.20;99.90;;;;;;5068876;28;19979;-75
2023/12/07 07:45:55;;;;;;;;;;;5.20;99.90;;;;;;5074311;28;20446;-75
2023/12/07 07:48:21;;;;;;;;;;;5.20;99.90;;;;;;5072470;28;20421;-77
2023/12/07 07:50:47;;;;;;;;;;;5.20;99.90;;;;;;5076024;28;19955;-78
2023/12/07 07:53:13;;;;;;;;;;;5.20;99.90;;;;;;5073293;28;19969;-79
2023/12/07 07:55:38;;;;;;;;;;;5.20;99.90;;;;;;5072768;28;20665;-76
2023/12/07 07:58:04;;;;;;;;;;;5.20;99.90;;;;;;5054423;28;19924;-76
2023/12/07 08:00:30;;;;;;;;;;;5.20;99.90;;;;;;5049118;28;20023;-77
2023/12/07 08:02:55;;;;;;;;;;;5.20;99.90;;;;;;5050082;28;19921;-76
2023/12/07 08:05:21;;;;;;;;;;;5.20;99.90;;;;;;5048377;28;19939;-76
2023/12/07 08:07:46;;;;;;;;;;;5.20;99.90;;;;;;5049610;28;19934;-77
2023/12/07 08:10:12;;;;;;;;;;;5.20;99.90;;;;;;5053504;28;20636;-74
2023/12/07 08:12:39;;;;;;;;;;;5.30;99.90;;;;;;5054257;28;19924;-75
2023/12/07 08:15:04;;;;;;;;;;;5.30;99.90;;;;;;5057698;28;19945;-75
2023/12/07 08:17:30;;;;;;;;;;;5.30;99.90;;;;;;5053203;28;20604;-78
2023/12/07 08:19:59;;;;;;;;;;;5.30;99.90;;;;;;5054847;28;19913;-77
2023/12/07 08:22:24;;;;;;;;;;;5.30;99.90;;;;;;5048409;28;20510;-75
2023/12/07 08:24:50;;;;;;;;;;;5.30;99.90;;;;;;5050850;28;19928;-75
2023/12/07 08:27:15;;;;;;;;;;;5.40;99.90;;;;;;5049174;28;19959;-78
2023/12/07 08:29:41;;;;;;;;;;;5.30;99.90;;;;;;5046128;28;19923;-78
2023/12/07 08:32:06;;;;;;;;;;;5.40;99.90;;;;;;5047493;28;19956;-78
2023/12/07 08:34:32;;;;;;;;;;;5.40;99.90;;;;;;5046132;28;20380;-78
2023/12/07 08:36:57;;;;;;;;;;;5.40;99.90;;;;;;5046490;28;19916;-78
2023/12/07 08:39:24;;;;;;;;;;;5.40;99.90;;;;;;5050360;28;20580;-78
2023/12/07 08:41:49;;;;;;;;;;;5.40;99.90;;;;;;5049495;28;20438;-75
2023/12/07 08:44:15;;;;;;;;;;;5.40;99.90;;;;;;5047385;28;19923;-78
2023/12/07 08:46:43;;;;;;;;;;;5.40;99.90;;;;;;5048515;28;19913;-78
2023/12/07 08:49:09;;;;;;;;;;;5.40;99.90;;;;;;5049215;28;19916;-75
2023/12/07 08:51:35;;;;;;;;;;;5.40;99.90;;;;;;5051421;28;19986;-75
2023/12/07 08:54:01;;;;;;;;;;;5.50;99.90;;;;;;5051128;28;20233;-78
2023/12/07 08:56:26;;;;;;;;;;;5.50;99.90;;;;;;5048309;28;19917;-77
2023/12/07 08:58:52;;;;;;;;;;;5.50;99.90;;;;;;5071011;28;19960;-77
2023/12/07 09:01:17;;;;;;;;;;;5.50;99.90;;;;;;5072532;28;19974;-75
2023/12/07 09:03:43;;;;;;;;;;;5.50;99.90;;;;;;5071006;28;20379;-77
2023/12/07 09:06:08;;;;;;;;;;;5.50;99.90;;;;;;5086413;28;19919;-77
2023/12/07 09:08:34;;;;;;;;;;;5.50;99.90;;;;;;5080744;28;19912;-78
2023/12/07 09:11:00;;;;;;;;;;;5.50;99.90;;;;;;5071365;28;19929;-78
2023/12/07 09:13:25;;;;;;;;;;;5.50;99.90;;;;;;5068678;28;19924;-79
2023/12/07 09:15:51;;;;;;;;;;;5.50;99.90;;;;;;5075556;28;20346;-76
2023/12/07 09:18:16;;;;;;;;;;;5.50;99.90;;;;;;5072286;28;19969;-75
2023/12/07 09:20:48;;;;;;;;;;;5.50;99.90;;;;;;5081949;28;19919;-79
2023/12/07 09:23:14;;;;;;;;;;;5.50;99.90;;;;;;5079662;28;19912;-79
2023/12/07 09:25:40;;;;;;;;;;;5.50;99.90;;;;;;5078033;28;19920;-78
2023/12/07 09:28:06;;;;;;;;;;;5.60;99.90;;;;;;5088107;28;20389;-81
2023/12/07 09:30:33;;;;;;;;;;;5.60;99.90;;;;;;5085431;28;19930;-77
2023/12/07 09:32:59;;;;;;;;;;;5.70;99.90;;;;;;5076982;28;20010;-78
2023/12/07 09:35:24;;;;;;;;;;;5.70;99.90;;;;;;5072357;28;19920;-76
2023/12/07 09:37:50;;;;;;;;;;;5.80;99.90;;;;;;5070902;28;19917;-76
2023/12/07 09:40:19;;;;;;;;;;;5.80;99.90;;;;;;5079344;28;19916;-76
2023/12/07 09:42:45;;;;;;;;;;;5.80;99.90;;;;;;5080843;28;20371;-76
2023/12/07 09:45:11;;;;;;;;;;;5.80;99.90;;;;;;5071176;28;19927;-78
2023/12/07 09:47:37;;;;;;;;;;;5.80;99.90;;;;;;5070874;28;20329;-76
2023/12/07 09:50:03;;;;;;;;;;;5.80;99.90;;;;;;5068566;28;19920;-76
2023/12/07 09:52:29;;;;;;;;;;;5.90;99.90;;;;;;5075475;28;20592;-78
2023/12/07 09:54:54;;;;;;;;;;;6.00;99.90;;;;;;5072706;28;19916;-79
2023/12/07 09:57:21;;;;;;;;;;;6.10;99.90;;;;;;5079493;28;19916;-78
2023/12/07 09:59:46;;;;;;;;;;;6.10;99.90;;;;;;5072944;28;19974;-78
2023/12/07 10:02:13;;;;;;;;;;;6.30;99.90;;;;;;5078363;28;19960;-77
2023/12/07 10:04:39;;;;;;;;;;;6.20;99.90;;;;;;5068377;28;19916;-80
2023/12/07 10:07:08;;;;;;;;;;;6.30;99.90;;;;;;5083916;28;19913;-76
2023/12/07 10:09:43;;;;;;;;;;;6.20;99.90;;;;;;5072455;28;19916;-76
2023/12/07 10:12:08;;;;;;;;;;;6.30;99.90;;;;;;5071054;28;19932;-80
2023/12/07 10:14:34;;;;;;;;;;;6.30;99.90;;;;;;5070871;28;19920;-80
2023/12/07 10:17:00;;;;;;;;;;;6.40;99.90;;;;;;5088127;28;20026;-83
2023/12/07 10:19:27;;;;;;;;;;;6.40;99.90;;;;;;5090245;28;19924;-76
2023/12/07 10:21:53;;;;;;;;;;;6.50;99.90;;;;;;5086468;28;20429;-76
2023/12/07 10:24:19;;;;;;;;;;;6.50;99.90;;;;;;5075678;28;19916;-81
2023/12/07 10:26:45;;;;;;;;;;;6.50;99.90;;;;;;5081945;28;19912;-78
2023/12/07 10:29:11;;;;;;;;;;;6.50;99.90;;;;;;5083658;28;20007;-80
2023/12/07 10:31:37;;;;;;;;;;;6.50;99.90;;;;;;5078888;28;19912;-80
2023/12/07 10:34:04;;;;;;;;;;;6.60;99.90;;;;;;5072709;28;20445;-77
2023/12/07 10:36:29;;;;;;;;;;;6.50;99.90;;;;;;5084278;28;19923;-77
2023/12/07 10:38:55;;;;;;;;;;;6.50;99.90;;;;;;5086615;28;20023;-81
2023/12/07 10:41:21;;;;;;;;;;;6.50;99.90;;;;;;5082039;28;19916;-82
2023/12/07 10:43:48;;;;;;;;;;;6.60;99.90;;;;;;5074621;28;19912;-81
2023/12/07 10:46:18;;;;;;;;;;;6.80;99.90;;;;;;5069902;28;20027;-76
2023/12/07 10:49:05;;;;;;;;;;;6.90;99.90;;;;;;5069535;28;20004;-76
2023/12/07 10:51:30;;;;;;;;;;;6.90;99.90;;;;;;5068878;28;19966;-80
2023/12/07 10:53:56;;;;;;;;;;;7.00;99.90;;;;;;5068815;28;20306;-79
2023/12/07 10:56:28;;;;;;;;;;;7.10;99.90;;;;;;5080475;28;20006;-76
2023/12/07 10:58:55;;;;;;;;;;;7.20;99.90;;;;;;5087811;28;19919;-76
2023/12/07 11:01:21;;;;;;;;;;;7.40;99.90;;;;;;5069195;28;19978;-76
2023/12/07 11:03:49;;;;;;;;;;;7.40;99.90;;;;;;5069243;28;19916;-79
2023/12/07 11:06:14;;;;;;;;;;;7.60;99.90;;;;;;5064223;28;19916;-81
2023/12/07 11:08:46;;;;;;;;;;;7.70;99.90;;;;;;5068378;28;20363;-82
2023/12/07 11:11:28;;;;;;;;;;;7.80;99.90;;;;;;5102772;28;19963;-82
2023/12/07 11:14:04;;;;;;;;;;;8.00;99.90;;;;;;5075872;28;19931;-76
2023/12/07 11:16:30;;;;;;;;;;;8.00;99.90;;;;;;5081653;28;20370;-83
2023/12/07 11:18:55;;;;;;;;;;;8.20;99.90;;;;;;5070577;28;20011;-83
2023/12/07 11:21:21;;;;;;;;;;;8.10;99.90;;;;;;5070057;28;19978;-80
2023/12/07 11:23:46;;;;;;;;;;;8.10;99.90;;;;;;5074263;28;20504;-78
2023/12/07 11:26:12;;;;;;;;;;;8.10;99.90;;;;;;5074452;28;19916;-77
2023/12/07 11:28:38;;;;;;;;;;;8.00;99.90;;;;;;5069295;28;19917;-78
2023/12/07 11:31:06;;;;;;;;;;;8.10;99.90;;;;;;5066959;28;20330;-82
2023/12/07 11:33:31;;;;;;;;;;;8.10;99.90;;;;;;5071134;28;19922;-84
2023/12/07 11:36:00;;;;;;;;;;;8.20;99.90;;;;;;5061423;28;20350;-84
2023/12/07 11:38:25;;;;;;;;;;;8.30;99.90;;;;;;5077163;28;19974;-78
2023/12/07 11:40:50;;;;;;;;;;;8.30;99.90;;;;;;5069920;28;20375;-79
2023/12/07 11:43:17;;;;;;;;;;;8.30;99.90;;;;;;5068437;28;19912;-80
2023/12/07 11:45:49;;;;;;;;;;;8.40;99.90;;;;;;5073311;28;19917;-78
2023/12/07 11:48:15;;;;;;;;;;;8.40;99.90;;;;;;5104802;28;19962;-82
2023/12/07 11:50:57;;;;;;;;;;;8.40;99.90;;;;;;5067459;28;19921;-77
2023/12/07 11:53:23;;;;;;;;;;;8.50;99.90;;;;;;5065322;28;19920;-78
2023/12/07 11:55:49;;;;;;;;;;;8.40;99.90;;;;;;5083779;28;20334;-83
2023/12/07 11:58:15;;;;;;;;;;;8.40;99.90;;;;;;5071462;28;19916;-80
2023/12/07 12:00:40;;;;;;;;;;;8.40;99.90;;;;;;5077159;28;20429;-82
2023/12/07 12:03:06;;;;;;;;;;;8.40;99.90;;;;;;5071015;28;19920;-81
2023/12/07 12:05:31;;;;;;;;;;;8.40;99.90;;;;;;5079804;28;20015;-78
2023/12/07 12:07:57;;;;;;;;;;;8.40;99.90;;;;;;5073005;28;19920;-78
2023/12/07 12:10:25;;;;;;;;;;;8.40;99.90;;;;;;5078029;28;19923;-82
2023/12/07 12:12:53;;;;;;;;;;;8.40;99.90;;;;;;5081605;28;19920;-80
2023/12/07 12:15:20;;;;;;;;;;;8.40;99.90;;;;;;5075031;28;19916;-82
2023/12/07 12:17:45;;;;;;;;;;;8.40;99.90;;;;;;5075811;28;19917;-77
2023/12/07 12:20:17;;;;;;;;;;;8.30;99.90;;;;;;5070831;28;19912;-77
2023/12/07 12:22:43;;;;;;;;;;;8.40;99.90;;;;;;5073304;28;19916;-76
2023/12/07 12:25:08;;;;;;;;;;;8.30;99.90;;;;;;5077777;28;20439;-76
2023/12/07 12:27:34;;;;;;;;;;;8.30;99.90;;;;;;5075826;28;19913;-81
2023/12/07 12:30:00;;;;;;;;;;;8.20;99.90;;;;;;5071218;28;20034;-81
2023/12/07 12:32:26;;;;;;;;;;;8.00;99.90;;;;;;5072144;28;20290;-78
2023/12/07 12:34:52;;;;;;;;;;;7.90;99.90;;;;;;5072170;28;19913;-82
2023/12/07 12:37:17;;;;;;;;;;;7.90;99.90;;;;;;5072671;28;19916;-81
2023/12/07 12:39:43;;;;;;;;;;;7.80;99.90;;;;;;5077046;28;20454;-81
2023/12/07 12:42:11;;;;;;;;;;;7.70;99.90;;;;;;5074927;28;20035;-80
2023/12/07 12:44:38;;;;;;;;;;;7.70;99.90;;;;;;5071000;28;20740;-77
2023/12/07 12:47:10;;;;;;;;;;;7.70;99.90;;;;;;5074119;28;19928;-81
2023/12/07 12:49:36;;;;;;;;;;;7.70;99.90;;;;;;5071683;28;19908;-80
2023/12/07 12:52:02;;;;;;;;;;;7.70;99.90;;;;;;5071749;28;19917;-81
2023/12/07 12:54:34;;;;;;;;;;;7.70;99.90;;;;;;5069196;28;19924;-79
2023/12/07 12:56:59;;;;;;;;;;;7.70;99.90;;;;;;5076867;28;19917;-77
2023/12/07 12:59:25;;;;;;;;;;;7.60;99.90;;;;;;5071321;28;19983;-80
2023/12/07 13:01:50;;;;;;;;;;;7.60;99.90;;;;;;5071236;28;19916;-80
2023/12/07 13:04:16;;;;;;;;;;;7.60;99.90;;;;;;5075451;28;20342;-81
2023/12/07 13:06:41;;;;;;;;;;;7.60;99.90;;;;;;5091909;28;20337;-81
2023/12/07 13:09:07;;;;;;;;;;;7.60;99.90;;;;;;5074853;28;19916;-78
2023/12/07 13:11:32;;;;;;;;;;;7.60;99.90;;;;;;5072136;28;20047;-78
2023/12/07 13:13:58;;;;;;;;;;;7.50;99.90;;;;;;5080449;28;20394;-81
2023/12/07 13:16:24;;;;;;;;;;;7.50;99.90;;;;;;5085432;28;19923;-83
2023/12/07 13:18:50;;;;;;;;;;;7.50;99.90;;;;;;5072522;28;20291;-78
2023/12/07 13:21:15;;;;;;;;;;;7.50;99.90;;;;;;5080723;28;19919;-77
2023/12/07 13:23:41;;;;;;;;;;;7.60;99.90;;;;;;5077077;28;20391;-81
2023/12/07 13:26:06;;;;;;;;;;;7.60;99.90;;;;;;5082649;28;19916;-79
2023/12/07 13:28:33;;;;;;;;;;;7.60;99.90;;;;;;5077586;28;20424;-78
2023/12/07 13:30:58;;;;;;;;;;;7.60;99.90;;;;;;5089171;28;19912;-78
2023/12/07 13:33:25;;;;;;;;;;;7.70;99.90;;;;;;5080885;28;19946;-80
2023/12/07 13:35:51;;;;;;;;;;;7.70;99.90;;;;;;5071205;28;19999;-78
2023/12/07 13:38:19;;;;;;;;;;;7.60;99.90;;;;;;5071102;28;19914;-79
2023/12/07 13:40:45;;;;;;;;;;;7.60;99.90;;;;;;5073585;28;20291;-79
2023/12/07 13:43:11;;;;;;;;;;;7.60;99.90;;;;;;5077448;28;19916;-79
2023/12/07 13:45:36;;;;;;;;;;;7.60;99.90;;;;;;5084573;28;20555;-79
2023/12/07 13:48:02;;;;;;;;;;;7.60;99.90;;;;;;5081531;28;19909;-79
2023/12/07 13:50:27;;;;;;;;;;;7.70;99.90;;;;;;5070148;28;19938;-79
2023/12/07 13:52:53;;;;;;;;;;;7.80;99.90;;;;;;5070977;28;19955;-79
2023/12/07 13:55:18;;;;;;;;;;;7.90;99.90;;;;;;5071170;28;19924;-80
2023/12/07 13:57:44;;;;;;;;;;;8.00;99.90;;;;;;5076631;28;20022;-79
2023/12/07 14:00:13;;;;;;;;;;;8.10;99.90;;;;;;5081064;28;20349;-79
2023/12/07 14:02:38;;;;;;;;;;;8.00;99.90;;;;;;5076693;28;19921;-81
2023/12/07 14:05:04;;;;;;;;;;;8.10;99.90;;;;;;5074860;28;20416;-80
2023/12/07 14:07:30;;;;;;;;;;;8.00;99.90;;;;;;5070025;28;19924;-79
2023/12/07 14:09:56;;;;;;;;;;;8.00;99.90;;;;;;5070264;28;19913;-80
2023/12/07 14:12:21;;;;;;;;;;;8.00;99.90;;;;;;5071030;28;19951;-79
2023/12/07 14:14:47;;;;;;;;;;;8.00;99.90;;;;;;5069654;28;20398;-79
2023/12/07 14:17:13;;;;;;;;;;;8.00;99.90;;;;;;5068271;28;19916;-79
2023/12/07 14:19:39;;;;;;;;;;;8.00;99.90;;;;;;5072993;28;20298;-81
2023/12/07 14:22:05;;;;;;;;;;;8.00;99.90;;;;;;5070243;28;19950;-80
2023/12/07 14:24:30;;;;;;;;;;;8.00;99.90;;;;;;5076438;28;19920;-80